Time;durP1;ratioP1;P1;durP2;ratioP2;P2;SDS_P1;SDS_P2;PMS_P1;PMS_P2;Temp;Humidity;BMP_temperature;BMP_pressure;BME280_temperature;BME280_humidity;BME280_pressure;Samples;Min_cycle;Max_cycle;Signal;HPM_P1;HPM_P2
2023/07/19 00:01:52;;;;;;;0.40;0.40;;;;;;;12.78;100.00;97136.53;4956068;28;20050;-82
2023/07/19 00:04:20;;;;;;;0.40;0.40;;;;;;;12.86;100.00;97139.66;4956454;28;20054;-83
2023/07/19 00:06:47;;;;;;;0.40;0.40;;;;;;;12.79;100.00;97129.25;4972111;28;20481;-83
2023/07/19 00:09:14;;;;;;;0.50;0.50;;;;;;;12.78;100.00;97138.47;4973436;28;20046;-83
2023/07/19 00:11:41;;;;;;;0.40;0.40;;;;;;;12.78;100.00;97143.88;4973471;28;20051;-83
2023/07/19 00:14:08;;;;;;;0.40;0.40;;;;;;;12.73;100.00;97128.53;4973559;28;20050;-84
2023/07/19 00:16:35;;;;;;;0.40;0.40;;;;;;;12.74;100.00;97116.63;4973275;28;20478;-83
2023/07/19 00:19:02;;;;;;;0.40;0.40;;;;;;;12.78;100.00;97122.22;4973199;28;20438;-83
2023/07/19 00:21:46;;;;;;;0.45;0.45;;;;;;;12.73;100.00;97104.19;4955595;28;20068;-83
2023/07/19 00:24:13;;;;;;;0.40;0.40;;;;;;;12.75;100.00;97101.19;4973001;28;20050;-83
2023/07/19 00:26:40;;;;;;;0.40;0.40;;;;;;;12.78;100.00;97097.84;4956014;28;20050;-82
2023/07/19 00:29:08;;;;;;;0.40;0.40;;;;;;;12.81;100.00;97102.66;4973188;28;20138;-83
2023/07/19 00:31:36;;;;;;;0.40;0.40;;;;;;;12.86;100.00;97097.13;4971698;28;20078;-84
2023/07/19 00:34:05;;;;;;;0.50;0.50;;;;;;;12.91;100.00;97099.75;4971701;28;20548;-83
2023/07/19 00:36:32;;;;;;;0.40;0.40;;;;;;;12.95;100.00;97098.00;4971781;28;20514;-82
2023/07/19 00:39:00;;;;;;;0.50;0.50;;;;;;;12.96;100.00;97094.22;4972855;28;20536;-82
2023/07/19 00:41:27;;;;;;;0.50;0.50;;;;;;;12.97;100.00;97103.13;4973620;28;20113;-82
2023/07/19 00:43:57;;;;;;;0.40;0.40;;;;;;;12.99;100.00;97104.44;4989573;28;20066;-82
2023/07/19 00:46:25;;;;;;;0.40;0.40;;;;;;;12.89;100.00;97093.81;4977367;28;20544;-83
2023/07/19 00:48:53;;;;;;;0.40;0.40;;;;;;;12.86;100.00;97078.19;4972663;28;20050;-86
2023/07/19 00:51:21;;;;;;;0.40;0.40;;;;;;;12.90;100.00;97089.22;4979494;28;20413;-82
2023/07/19 00:53:49;;;;;;;0.30;0.30;;;;;;;12.80;100.00;97080.22;4991421;28;20050;-82
2023/07/19 00:56:17;;;;;;;0.40;0.40;;;;;;;12.85;100.00;97090.13;4990730;28;20046;-82
2023/07/19 00:58:44;;;;;;;0.32;0.32;;;;;;;12.84;100.00;97088.53;4989643;28;20069;-82
2023/07/19 01:01:12;;;;;;;0.40;0.40;;;;;;;12.79;100.00;97077.81;4991978;28;20042;-83
2023/07/19 01:03:39;;;;;;;0.40;0.40;;;;;;;12.83;100.00;97086.91;4991784;28;20051;-81
2023/07/19 01:06:06;;;;;;;0.40;0.40;;;;;;;12.85;100.00;97076.59;4991809;28;20137;-82
2023/07/19 01:08:34;;;;;;;0.40;0.40;;;;;;;12.90;100.00;97089.22;4991739;28;20085;-82
2023/07/19 01:11:01;;;;;;;0.50;0.50;;;;;;;12.91;100.00;97086.22;4990398;28;20046;-83
2023/07/19 01:13:28;;;;;;;0.40;0.40;;;;;;;12.94;100.00;97099.13;4991269;28;20054;-82
2023/07/19 01:15:56;;;;;;;0.40;0.40;;;;;;;12.94;100.00;97099.13;4991534;28;20047;-83
2023/07/19 01:18:23;;;;;;;0.40;0.40;;;;;;;12.93;100.00;97097.50;4974516;28;20465;-83
2023/07/19 01:20:50;;;;;;;0.47;0.47;;;;;;;12.92;100.00;97089.72;4990327;28;20058;-84
2023/07/19 01:23:19;;;;;;;0.40;0.40;;;;;;;12.85;100.00;97090.13;4990134;28;20209;-83
2023/07/19 01:25:47;;;;;;;0.50;0.50;;;;;;;12.89;100.00;97106.56;4991620;28;20060;-85
2023/07/19 01:28:15;;;;;;;0.40;0.40;;;;;;;12.91;100.00;97110.56;4976196;28;20101;-83
2023/07/19 01:30:43;;;;;;;0.40;0.40;;;;;;;12.90;100.00;97117.06;4970358;28;20047;-83
2023/07/19 01:33:10;;;;;;;0.40;0.40;;;;;;;12.88;100.00;97110.38;4971580;28;20061;-83
2023/07/19 01:35:57;;;;;;;0.50;0.50;;;;;;;12.83;100.00;97119.41;4966034;28;20042;-83
2023/07/19 01:38:27;;;;;;;0.40;0.40;;;;;;;12.86;100.00;97113.38;4971025;28;20141;-83
2023/07/19 01:40:54;;;;;;;0.40;0.40;;;;;;;12.87;100.00;97130.44;4972010;28;20391;-83
2023/07/19 01:43:21;;;;;;;0.40;0.40;;;;;;;12.82;100.00;97123.22;4954793;28;20109;-83
2023/07/19 01:45:48;;;;;;;0.40;0.40;;;;;;;12.85;100.00;97124.53;4971879;28;20051;-84
2023/07/19 01:48:16;;;;;;;0.40;0.40;;;;;;;12.83;100.00;97122.09;4954316;28;20043;-83
2023/07/19 01:50:47;;;;;;;0.40;0.40;;;;;;;12.79;100.00;97129.25;4971856;28;20042;-83
2023/07/19 01:53:15;;;;;;;0.40;0.40;;;;;;;12.70;100.00;97125.66;4954510;28;20054;-85
2023/07/19 01:55:42;;;;;;;0.40;0.40;;;;;;;12.72;100.00;97123.44;4971923;28;20536;-83
2023/07/19 01:58:11;;;;;;;0.40;0.40;;;;;;;12.70;100.00;97133.78;4970542;28;20055;-84
2023/07/19 02:00:38;;;;;;;0.40;0.40;;;;;;;12.70;100.00;97128.34;4970508;28;20533;-83
2023/07/19 02:03:05;;;;;;;0.40;0.40;;;;;;;12.63;100.00;97127.97;4970455;28;20057;-83
2023/07/19 02:05:34;;;;;;;0.40;0.40;;;;;;;12.69;100.00;97137.59;4971735;28;20138;-83
2023/07/19 02:08:03;;;;;;;0.47;0.47;;;;;;;12.71;100.00;97135.34;4954264;28;20155;-82
2023/07/19 02:10:33;;;;;;;0.40;0.40;;;;;;;12.68;100.00;97141.38;4975471;28;20058;-82
2023/07/19 02:13:01;;;;;;;0.40;0.40;;;;;;;12.62;100.00;97151.53;4975369;28;20082;-82
2023/07/19 02:15:29;;;;;;;0.40;0.40;;;;;;;12.61;100.00;97149.09;4975970;28;20161;-83
2023/07/19 02:17:58;;;;;;;0.40;0.40;;;;;;;12.58;100.00;97154.03;4975808;28;20042;-83
2023/07/19 02:20:25;;;;;;;0.40;0.40;;;;;;;12.62;100.00;97151.53;4958341;28;20051;-84
2023/07/19 02:22:52;;;;;;;0.40;0.40;;;;;;;12.66;100.00;97159.81;4958219;28;20050;-83
2023/07/19 02:25:20;;;;;;;0.40;0.40;;;;;;;12.63;100.00;97157.72;4954310;28;20063;-83
2023/07/19 02:27:47;;;;;;;0.40;0.40;;;;;;;12.60;100.00;97139.41;4967178;28;20046;-82
2023/07/19 02:30:14;;;;;;;0.40;0.40;;;;;;;12.59;100.00;97157.56;4975085;28;20058;-83
2023/07/19 02:32:42;;;;;;;0.40;0.40;;;;;;;12.64;100.00;97156.66;4974774;28;20055;-83
2023/07/19 02:35:09;;;;;;;0.40;0.40;;;;;;;12.64;100.00;97156.66;4973652;28;20058;-83
2023/07/19 02:37:36;;;;;;;0.40;0.40;;;;;;;12.65;100.00;97171.78;4973823;28;20057;-82
2023/07/19 02:40:03;;;;;;;0.40;0.40;;;;;;;12.68;100.00;97176.56;4957518;28;20464;-83
2023/07/19 02:42:32;;;;;;;0.40;0.40;;;;;;;12.67;100.00;97210.97;4975027;28;20506;-83
2023/07/19 02:44:58;;;;;;;0.40;0.40;;;;;;;12.64;100.00;97197.25;4974862;28;20094;-83
2023/07/19 02:47:26;;;;;;;0.40;0.40;;;;;;;12.64;100.00;97191.81;4941749;28;20557;-82
2023/07/19 02:49:53;;;;;;;0.40;0.40;;;;;;;12.60;100.00;97177.28;4973493;28;20053;-84
2023/07/19 02:52:22;;;;;;;0.40;0.40;;;;;;;12.53;100.00;97205.56;4974657;28;20055;-84
2023/07/19 02:54:49;;;;;;;0.47;0.47;;;;;;;12.46;100.00;97199.75;4974669;28;20051;-84
2023/07/19 02:57:16;;;;;;;0.40;0.40;;;;;;;12.39;100.00;97201.25;4957646;28;20143;-83
2023/07/19 02:59:43;;;;;;;0.40;0.40;;;;;;;12.39;100.00;97191.22;4973540;28;20046;-83
2023/07/19 03:02:13;;;;;;;0.40;0.40;;;;;;;12.35;100.00;97195.63;4974289;28;20060;-82
2023/07/19 03:04:40;;;;;;;0.40;0.40;;;;;;;12.28;100.00;97214.97;4994410;28;20058;-83
2023/07/19 03:07:07;;;;;;;0.40;0.40;;;;;;;12.26;100.00;97210.97;4992627;28;20370;-83
2023/07/19 03:09:34;;;;;;;0.40;0.40;;;;;;;12.25;100.00;97210.13;4992536;28;20472;-82
2023/07/19 03:12:01;;;;;;;0.40;0.40;;;;;;;12.27;100.00;97220.66;4992270;28;20074;-83
2023/07/19 03:14:28;;;;;;;0.40;0.40;;;;;;;12.22;100.00;97202.63;4993585;28;20053;-83
2023/07/19 03:16:55;;;;;;;0.50;0.50;;;;;;;12.24;100.00;97215.84;4992213;28;20062;-82
2023/07/19 03:19:22;;;;;;;0.50;0.50;;;;;;;12.24;100.00;97249.09;4992844;28;20058;-83
2023/07/19 03:21:50;;;;;;;0.50;0.50;;;;;;;12.27;100.00;97239.59;4979758;28;20051;-83
2023/07/19 03:24:17;;;;;;;0.45;0.45;;;;;;;12.28;100.00;97243.88;4968128;28;20057;-82
2023/07/19 03:26:45;;;;;;;0.50;0.50;;;;;;;12.29;100.00;97240.09;4976644;28;20133;-81
2023/07/19 03:29:14;;;;;;;0.43;0.43;;;;;;;12.27;100.00;97272.06;4990139;28;20505;-83
2023/07/19 03:31:42;;;;;;;0.40;0.40;;;;;;;12.28;100.00;97274.47;4965307;28;20054;-82
2023/07/19 03:34:09;;;;;;;0.50;0.50;;;;;;;12.24;100.00;97288.88;4982547;28;20062;-82
2023/07/19 03:36:36;;;;;;;0.50;0.50;;;;;;;12.30;100.00;97295.78;4948501;28;20051;-82
2023/07/19 03:39:03;;;;;;;0.40;0.40;;;;;;;12.24;100.00;97288.88;4970513;28;20527;-82
2023/07/19 03:41:35;;;;;;;0.40;0.40;;;;;;;12.22;100.00;97312.72;4982238;28;20081;-81
2023/07/19 03:44:02;;;;;;;0.45;0.45;;;;;;;12.22;100.00;97334.34;4986242;28;20105;-82
2023/07/19 03:46:30;;;;;;;0.40;0.40;;;;;;;12.22;100.00;97335.13;4981183;28;20046;-81
2023/07/19 03:48:58;;;;;;;0.40;0.40;;;;;;;12.24;100.00;97345.69;4977152;28;20046;-82
2023/07/19 03:51:25;;;;;;;0.40;0.40;;;;;;;12.18;100.00;97338.72;4960929;28;20491;-81
2023/07/19 03:53:53;;;;;;;0.40;0.40;;;;;;;12.19;100.00;97343.06;4980210;28;20049;-81
2023/07/19 03:56:22;;;;;;;0.40;0.40;;;;;;;12.12;100.00;97340.72;4981158;28;20057;-82
2023/07/19 03:58:49;;;;;;;0.40;0.40;;;;;;;12.04;100.00;97350.31;4983119;28;20133;-81
2023/07/19 04:01:16;;;;;;;0.40;0.40;;;;;;;12.03;100.00;97356.81;4963974;28;20073;-81
2023/07/19 04:03:44;;;;;;;0.50;0.50;;;;;;;12.04;100.00;97361.13;4983216;28;20050;-81
2023/07/19 04:06:14;;;;;;;0.50;0.50;;;;;;;12.06;100.00;97360.84;4980345;28;20413;-79
2023/07/19 04:08:41;;;;;;;0.40;0.40;;;;;;;12.02;100.00;97352.50;4967529;28;20050;-81
2023/07/19 04:11:10;;;;;;;0.50;0.50;;;;;;;11.97;100.00;97366.09;4968513;28;20402;-81
2023/07/19 04:13:37;;;;;;;0.40;0.40;;;;;;;11.96;100.00;97369.91;4976320;28;20510;-80
2023/07/19 04:16:04;;;;;;;0.43;0.43;;;;;;;11.98;100.00;97365.00;4956475;28;20551;-81
2023/07/19 04:18:31;;;;;;;0.50;0.50;;;;;;;11.96;100.00;97380.72;4956882;28;20537;-82
2023/07/19 04:20:58;;;;;;;0.50;0.50;;;;;;;11.96;100.00;97386.13;4983234;28;20046;-82
2023/07/19 04:23:27;;;;;;;0.50;0.50;;;;;;;11.93;100.00;97382.09;4978880;28;20071;-81
2023/07/19 04:25:54;;;;;;;0.40;0.40;;;;;;;11.92;100.00;97383.22;4959368;28;20433;-81
2023/07/19 04:28:21;;;;;;;0.40;0.40;;;;;;;11.95;100.00;97371.00;4974941;28;20046;-81
2023/07/19 04:30:49;;;;;;;0.50;0.50;;;;;;;11.85;100.00;97373.78;4979156;28;20046;-80
2023/07/19 04:33:17;;;;;;;0.50;0.50;;;;;;;11.91;100.00;97405.91;4978290;28;20046;-81
2023/07/19 04:35:47;;;;;;;0.50;0.50;;;;;;;12.00;100.00;97389.84;4977716;28;20432;-79
2023/07/19 04:38:14;;;;;;;0.50;0.50;;;;;;;12.03;100.00;97397.38;4967876;28;20054;-81
2023/07/19 04:40:41;;;;;;;0.50;0.50;;;;;;;11.95;100.00;97389.94;4973219;28;20061;-81
2023/07/19 04:43:09;;;;;;;0.50;0.50;;;;;;;11.95;100.00;97395.34;4971394;28;20455;-81
2023/07/19 04:45:37;;;;;;;0.50;0.50;;;;;;;11.99;100.00;97407.16;4971628;28;20058;-82
2023/07/19 04:48:05;;;;;;;0.40;0.40;;;;;;;12.01;100.00;97413.06;4971520;28;20047;-83
2023/07/19 04:50:32;;;;;;;0.45;0.45;;;;;;;11.99;100.00;97423.38;4950170;28;20043;-82
2023/07/19 04:53:01;;;;;;;0.40;0.40;;;;;;;11.97;100.00;97403.94;4963885;28;20050;-82
2023/07/19 04:55:28;;;;;;;0.50;0.50;;;;;;;11.88;100.00;97416.53;4960925;28;20528;-81
2023/07/19 04:57:57;;;;;;;0.40;0.40;;;;;;;11.88;100.00;97440.84;4979526;28;20051;-82
2023/07/19 05:00:27;;;;;;;0.50;0.50;;;;;;;11.89;100.00;97429.72;4952475;28;20061;-81
2023/07/19 05:02:54;;;;;;;0.40;0.40;;;;;;;11.80;100.00;97433.31;4974901;28;20050;-82
2023/07/19 05:18:17;;;;;;;0.40;0.40;;;;;;;12.28;100.00;97436.75;6104853;22;2490513;-86
2023/07/19 05:20:44;;;;;;;0.40;0.40;;;;;;;12.22;100.00;97450.63;6190162;23;20020;-87
2023/07/19 05:23:11;;;;;;;0.50;0.50;;;;;;;12.09;100.00;97468.41;6127769;23;20026;-84
2023/07/19 05:25:39;;;;;;;0.40;0.40;;;;;;;11.98;100.00;97470.44;6080040;23;20092;-84
2023/07/19 05:28:06;;;;;;;0.50;0.50;;;;;;;11.95;100.00;97467.50;6102730;23;20472;-82
2023/07/19 05:30:33;;;;;;;0.50;0.50;;;;;;;11.88;100.00;97465.97;6103186;23;20133;-84
2023/07/19 05:33:00;;;;;;;0.50;0.50;;;;;;;11.84;100.00;97483.81;6127489;23;20057;-83
2023/07/19 05:35:27;;;;;;;0.50;0.50;;;;;;;11.91;100.00;97491.63;6127924;23;20546;-82
2023/07/19 05:37:54;;;;;;;0.50;0.50;;;;;;;11.88;100.00;97494.91;6127878;23;20559;-83
2023/07/19 05:40:25;;;;;;;0.50;0.50;;;;;;;11.90;100.00;97492.69;6128449;23;20022;-82
2023/07/19 05:42:52;;;;;;;0.50;0.50;;;;;;;11.85;100.00;97498.97;6127913;23;20136;-80
2023/07/19 05:45:19;;;;;;;0.50;0.50;;;;;;;11.89;100.00;97493.81;6128603;23;20540;-83
2023/07/19 05:47:47;;;;;;;0.50;0.50;;;;;;;11.93;100.00;97505.66;6127233;23;20060;-80
2023/07/19 05:50:14;;;;;;;0.52;0.52;;;;;;;12.05;100.00;97503.34;6128597;23;20026;-81
2023/07/19 05:52:41;;;;;;;0.50;0.50;;;;;;;12.22;100.00;97513.66;6103962;23;20099;-82
2023/07/19 05:55:08;;;;;;;0.50;0.50;;;;;;;12.08;100.00;97512.78;6182098;23;20027;-81
2023/07/19 05:57:35;;;;;;;0.50;0.50;;;;;;;12.12;100.00;97536.22;6190221;23;20048;-81
2023/07/19 06:00:28;;;;;;;0.50;0.50;;;;;;;12.14;100.00;97525.13;6182822;23;20021;-81
2023/07/19 06:02:57;;;;;;;0.50;0.50;;;;;;;12.11;100.00;97529.22;6159538;23;20025;-82
2023/07/19 06:05:25;;;;;;;0.50;0.50;;;;;;;12.04;100.00;97533.38;6155277;23;20024;-81
2023/07/19 06:07:52;;;;;;;0.50;0.50;;;;;;;11.95;100.00;97533.22;6104507;23;20036;-82
2023/07/19 06:10:21;;;;;;;0.50;0.50;;;;;;;11.92;100.00;97552.69;6130841;23;20032;-82
2023/07/19 06:12:49;;;;;;;0.50;0.50;;;;;;;11.93;100.00;97522.69;6101037;23;20028;-81
2023/07/19 06:15:17;;;;;;;0.50;0.50;;;;;;;11.93;100.00;97554.31;6130119;23;20026;-84
2023/07/19 06:17:45;;;;;;;0.50;0.50;;;;;;;12.00;100.00;97557.47;6127391;23;20108;-83
2023/07/19 06:20:15;;;;;;;0.50;0.50;;;;;;;12.02;100.00;97562.59;6098512;23;20624;-84
2023/07/19 06:22:43;;;;;;;0.50;0.50;;;;;;;12.00;100.00;97560.19;6097149;23;20041;-83
2023/07/19 06:25:12;;;;;;;0.50;0.50;;;;;;;11.98;100.00;97570.47;6098544;23;20033;-82
2023/07/19 06:27:40;;;;;;;0.50;0.50;;;;;;;11.98;100.00;97583.19;6123040;23;20029;-82
2023/07/19 06:30:07;;;;;;;0.50;0.50;;;;;;;11.94;100.00;97572.13;6121500;23;20045;-82
2023/07/19 06:32:34;;;;;;;0.50;0.50;;;;;;;11.98;100.00;97594.81;6123017;23;20053;-81
2023/07/19 06:35:05;;;;;;;0.50;0.50;;;;;;;11.92;100.00;97585.13;6096408;23;20026;-84
2023/07/19 06:37:33;;;;;;;0.50;0.50;;;;;;;11.93;100.00;97578.66;6094810;23;20025;-82
2023/07/19 07:08:44;;;;;;;0.50;0.50;;;;;;;12.60;100.00;97600.25;6115630;23;20037;-82
2023/07/19 07:11:11;;;;;;;0.50;0.50;;;;;;;12.48;100.00;97610.69;6092914;23;20660;-81
2023/07/19 07:13:39;;;;;;;0.50;0.50;;;;;;;12.42;100.00;97591.03;6092819;23;20388;-81
2023/07/19 07:16:05;;;;;;;0.50;0.50;;;;;;;12.61;100.00;97603.75;6069163;23;20032;-80
2023/07/19 07:18:33;;;;;;;0.50;0.50;;;;;;;12.65;100.00;97610.19;6117821;23;20026;-82
2023/07/19 07:21:00;;;;;;;0.50;0.50;;;;;;;12.68;100.00;97613.13;6118798;23;20037;-80
2023/07/19 07:23:27;;;;;;;0.60;0.60;;;;;;;12.66;100.00;97630.75;6118830;23;20021;-81
2023/07/19 07:25:54;;;;;;;0.50;0.50;;;;;;;12.73;100.00;97625.78;6093321;23;20029;-82
2023/07/19 07:28:22;;;;;;;0.55;0.55;;;;;;;12.82;100.00;97621.34;6119102;23;20022;-81
2023/07/19 07:30:49;;;;;;;0.50;0.50;;;;;;;12.98;100.00;97630.84;6117861;23;20116;-81
2023/07/19 07:33:16;;;;;;;0.50;0.50;;;;;;;13.18;100.00;97637.84;6093127;23;20421;-81
2023/07/19 07:35:43;;;;;;;0.60;0.60;;;;;;;13.08;100.00;97642.63;6118619;23;20457;-79
2023/07/19 07:38:10;;;;;;;0.50;0.50;;;;;;;13.05;100.00;97616.13;6118444;23;20064;-81
2023/07/19 07:40:38;;;;;;;0.50;0.50;;;;;;;13.09;100.00;97644.22;6092795;23;20436;-80
2023/07/19 07:43:05;;;;;;;0.47;0.47;;;;;;;13.01;100.00;97648.41;6118415;23;20018;-80
2023/07/19 07:45:32;;;;;;;0.45;0.45;;;;;;;13.16;100.00;97663.63;6118303;23;20034;-83
2023/07/19 07:47:59;;;;;;;0.50;0.50;;;;;;;13.02;100.00;97650.03;6092541;23;20026;-81
2023/07/19 07:50:26;;;;;;;0.50;0.50;;;;;;;12.94;100.00;97658.81;6118686;23;20026;-79
2023/07/19 07:52:53;;;;;;;0.50;0.50;;;;;;;13.12;100.00;97660.72;6092371;23;20542;-81
2023/07/19 07:55:37;;;;;;;0.50;0.50;;;;;;;13.22;100.00;97671.38;6117804;23;20033;-82
2023/07/19 07:58:05;;;;;;;0.40;0.40;;;;;;;13.19;100.00;97671.16;6118491;23;20717;-81
2023/07/19 08:00:32;;;;;;;0.50;0.50;;;;;;;13.25;100.00;97667.28;6118963;23;20029;-83
2023/07/19 08:02:59;;;;;;;0.50;0.50;;;;;;;13.28;100.00;97669.44;6117328;23;20085;-82
2023/07/19 08:05:27;;;;;;;0.50;0.50;;;;;;;13.47;100.00;97674.00;6119409;23;20065;-82
2023/07/19 08:07:54;;;;;;;0.50;0.50;;;;;;;13.67;100.00;97670.97;6092721;23;20030;-82
2023/07/19 08:10:21;;;;;;;0.60;0.60;;;;;;;13.75;100.00;97674.91;6119119;23;20077;-82
2023/07/19 08:12:48;;;;;;;0.55;0.55;;;;;;;13.82;100.00;97672.59;6117592;23;20018;-82
2023/07/19 08:15:15;;;;;;;0.50;0.50;;;;;;;13.83;100.00;97668.81;6117421;23;20021;-82
2023/07/19 08:17:42;;;;;;;0.50;0.50;;;;;;;13.90;100.00;97674.66;6116690;23;20022;-80
2023/07/19 08:20:10;;;;;;;0.50;0.50;;;;;;;14.01;100.00;97680.69;6117796;23;20022;-82
2023/07/19 08:22:38;;;;;;;0.50;0.50;;;;;;;14.05;100.00;97681.69;6117636;23;20076;-82
2023/07/19 08:25:07;;;;;;;0.50;0.50;;;;;;;14.22;100.00;97673.78;6116730;23;20050;-81
2023/07/19 08:27:52;;;;;;;0.50;0.50;;;;;;;14.28;100.00;97678.03;6117851;23;20060;-80
2023/07/19 08:30:20;;;;;;;0.50;0.50;;;;;;;14.33;100.00;97682.56;6118419;23;20101;-80
2023/07/19 08:32:48;;;;;;;0.50;0.50;;;;;;;14.37;100.00;97688.97;6091435;23;20590;-80
2023/07/19 08:35:16;;;;;;;0.50;0.50;;;;;;;14.42;98.86;97682.63;6092572;23;20026;-79
2023/07/19 08:37:44;;;;;;;0.50;0.50;;;;;;;14.39;98.45;97696.81;6116656;23;20026;-79
2023/07/19 08:40:12;;;;;;;0.50;0.50;;;;;;;14.44;98.54;97686.66;6117471;23;20026;-80
2023/07/19 08:42:40;;;;;;;0.45;0.45;;;;;;;14.46;97.53;97694.50;6117211;23;20117;-81
2023/07/19 08:45:09;;;;;;;0.50;0.50;;;;;;;14.65;98.67;97702.56;6092139;23;20073;-79
2023/07/19 08:47:38;;;;;;;0.40;0.40;;;;;;;14.74;97.15;97681.75;6114737;23;20406;-80
2023/07/19 08:50:06;;;;;;;0.60;0.60;;;;;;;15.34;97.01;97662.47;6090800;23;20080;-80
2023/07/19 08:52:33;;;;;;;0.50;0.50;;;;;;;15.75;95.26;97686.00;6116200;23;20089;-80
2023/07/19 08:55:03;;;;;;;0.50;0.50;;;;;;;15.88;91.12;97687.03;6091318;23;20096;-81
2023/07/19 08:57:32;;;;;;;0.60;0.60;;;;;;;15.88;90.03;97686.22;6092156;23;20068;-80
2023/07/19 08:59:59;;;;;;;0.50;0.50;;;;;;;15.77;86.90;97680.22;6090895;23;20411;-80
2023/07/19 09:02:26;;;;;;;0.50;0.50;;;;;;;15.78;86.71;97682.63;6090522;23;20025;-82
2023/07/19 09:05:10;;;;;;;0.60;0.60;;;;;;;16.13;82.56;97703.78;6091977;23;20021;-78
2023/07/19 09:07:38;;;;;;;0.60;0.60;;;;;;;16.74;80.88;97693.94;6069353;23;20064;-79
2023/07/19 09:10:08;;;;;;;0.70;0.70;;;;;;;17.27;76.62;97724.88;6097003;23;20045;-78
2023/07/19 09:12:39;;;;;;;0.60;0.60;;;;;;;17.51;74.43;97687.00;6121250;23;20104;-78
2023/07/19 09:15:11;;;;;;;0.60;0.60;;;;;;;17.95;72.74;97693.25;6121315;23;20358;-82
2023/07/19 09:17:43;;;;;;;0.50;0.50;;;;;;;18.26;71.02;97705.03;6120131;23;20056;-82
2023/07/19 09:20:12;;;;;;;0.47;0.47;;;;;;;18.32;66.31;97696.31;6120701;23;20021;-81
2023/07/19 09:22:40;;;;;;;0.50;0.50;;;;;;;18.23;67.23;97694.75;6119742;23;20471;-80
2023/07/19 09:25:09;;;;;;;0.50;0.50;;;;;;;18.21;66.98;97691.56;6121480;23;20029;-81
2023/07/19 09:27:41;;;;;;;0.50;0.50;;;;;;;18.47;66.32;97689.53;6120768;23;20120;-80
2023/07/19 09:30:13;;;;;;;0.50;0.50;;;;;;;18.54;64.76;97689.81;6010588;23;20030;-79
2023/07/19 09:32:41;;;;;;;0.40;0.40;;;;;;;18.48;65.66;97687.59;6058424;23;20062;-79
2023/07/19 09:35:08;;;;;;;0.40;0.40;;;;;;;18.08;66.52;97685.16;6060544;23;20023;-81
2023/07/19 09:37:36;;;;;;;0.60;0.60;;;;;;;18.28;65.42;97694.56;6059277;23;20035;-79
2023/07/19 09:40:04;;;;;;;0.50;0.50;;;;;;;18.80;63.82;97713.50;6013008;23;20061;-81
2023/07/19 09:42:36;;;;;;;0.50;0.50;;;;;;;18.75;63.05;97703.56;6057970;23;20037;-80
2023/07/19 09:45:06;;;;;;;0.70;0.70;;;;;;;19.21;61.19;97679.13;6057609;23;20031;-81
2023/07/19 09:47:35;;;;;;;0.52;0.52;;;;;;;19.30;59.54;97707.25;6058229;23;20027;-81
2023/07/19 09:50:06;;;;;;;0.80;0.80;;;;;;;19.99;57.76;97681.19;6058997;23;20493;-81
2023/07/19 09:52:37;;;;;;;0.77;0.77;;;;;;;20.90;53.81;97702.22;6057099;23;20034;-80
2023/07/19 09:55:06;;;;;;;0.60;0.60;;;;;;;21.18;53.11;97705.03;6062019;23;20049;-81
2023/07/19 09:57:33;;;;;;;0.50;0.50;;;;;;;21.00;52.36;97688.03;6062313;23;20023;-81
2023/07/19 10:00:03;;;;;;;0.40;0.40;;;;;;;19.78;54.37;97713.31;6062703;23;20046;-81
2023/07/19 10:02:33;;;;;;;0.90;0.90;;;;;;;20.36;53.36;97716.91;6120147;23;20022;-82
2023/07/19 10:05:07;;;;;;;0.80;0.80;;;;;;;20.12;53.56;97701.19;6121374;23;20026;-80
2023/07/19 10:07:38;;;;;;;0.40;0.40;;;;;;;19.75;54.64;97713.97;6122809;23;20061;-82
2023/07/19 10:10:17;;;;;;;0.45;0.45;;;;;;;19.34;55.53;97721.03;6099978;23;20026;-81
2023/07/19 10:12:48;;;;;;;0.40;0.40;;;;;;;19.49;56.23;97725.91;6097185;23;20032;-80
2023/07/19 10:15:17;;;;;;;0.50;0.50;;;;;;;20.03;55.67;97717.75;6097375;23;20037;-81
2023/07/19 10:17:51;;;;;;;0.50;0.50;;;;;;;19.55;54.87;97726.53;6122498;23;20640;-81
2023/07/19 10:20:26;;;;;;;0.50;0.50;;;;;;;19.72;54.81;97731.84;6122543;23;20026;-81
2023/07/19 10:22:55;;;;;;;0.50;0.50;;;;;;;19.32;54.38;97735.06;6121621;23;20022;-82
2023/07/19 10:25:29;;;;;;;0.43;0.43;;;;;;;19.26;55.38;97736.38;6121944;23;20029;-84
2023/07/19 10:28:12;;;;;;;0.40;0.40;;;;;;;19.28;56.35;97745.06;6096025;23;20105;-81
2023/07/19 10:30:45;;;;;;;0.40;0.40;;;;;;;18.97;57.44;97748.16;6123304;23;20037;-82
2023/07/19 10:33:34;;;;;;;0.30;0.30;;;;;;;18.62;60.09;97748.28;6123655;23;20108;-81
2023/07/19 10:36:09;;;;;;;0.40;0.40;;;;;;;18.40;62.20;97749.31;5976274;24;20053;-81
2023/07/19 10:38:36;;;;;;;0.40;0.40;;;;;;;18.27;62.18;97748.38;5976189;24;20103;-80
2023/07/19 10:41:05;;;;;;;0.40;0.40;;;;;;;18.10;61.98;97773.00;5975210;24;20114;-80
2023/07/19 10:43:34;;;;;;;0.40;0.40;;;;;;;17.91;61.90;97752.31;5976487;24;20153;-79
2023/07/19 10:46:17;;;;;;;0.40;0.40;;;;;;;17.66;62.82;97747.66;5976007;24;20032;-81
2023/07/19 10:48:49;;;;;;;0.40;0.40;;;;;;;17.59;62.65;97761.75;5976956;24;20038;-80
2023/07/19 10:51:16;;;;;;;0.40;0.40;;;;;;;17.46;63.42;97770.91;5977330;24;20119;-80
2023/07/19 10:53:45;;;;;;;0.40;0.40;;;;;;;17.33;63.24;97768.00;5977707;24;20059;-80
2023/07/19 10:56:15;;;;;;;0.40;0.40;;;;;;;17.28;62.60;97767.34;5976867;24;20055;-80
2023/07/19 10:58:43;;;;;;;0.40;0.40;;;;;;;17.33;63.08;97762.53;5977634;24;20028;-80
2023/07/19 11:01:11;;;;;;;0.50;0.50;;;;;;;17.60;63.53;97777.03;5977504;24;20059;-79
2023/07/19 11:03:39;;;;;;;0.50;0.50;;;;;;;17.80;62.20;97778.34;5977188;24;20040;-80
2023/07/19 11:06:09;;;;;;;0.50;0.50;;;;;;;17.97;61.35;97774.78;5976825;23;20360;-81
2023/07/19 11:08:36;;;;;;;0.50;0.50;;;;;;;18.22;60.05;97772.34;5954144;24;20056;-79
2023/07/19 11:11:03;;;;;;;0.50;0.50;;;;;;;18.32;59.95;97741.94;5977940;24;20047;-82
2023/07/19 11:13:31;;;;;;;0.50;0.50;;;;;;;18.62;59.51;97776.41;6045695;23;20034;-81
2023/07/19 11:15:58;;;;;;;0.50;0.50;;;;;;;18.68;58.49;97755.16;6123819;23;20032;-80
2023/07/19 11:18:30;;;;;;;0.40;0.40;;;;;;;18.66;58.47;97773.81;6096888;23;20049;-79
2023/07/19 11:20:58;;;;;;;0.40;0.40;;;;;;;18.64;58.68;97773.34;6123140;23;20021;-80
2023/07/19 11:23:26;;;;;;;0.50;0.50;;;;;;;18.66;58.87;97775.72;6123643;23;20028;-81
2023/07/19 11:26:07;;;;;;;1.00;1.00;;;;;;;19.79;55.50;97750.50;6097842;23;20112;-80
2023/07/19 11:28:35;;;;;;;0.40;0.40;;;;;;;19.32;55.16;97750.66;6123200;23;20022;-81
2023/07/19 11:31:03;;;;;;;0.40;0.40;;;;;;;19.10;56.61;97784.59;6123260;23;20092;-80
2023/07/19 11:33:30;;;;;;;0.40;0.40;;;;;;;18.89;57.54;97779.88;6123103;23;20026;-80
2023/07/19 11:35:57;;;;;;;0.40;0.40;;;;;;;18.49;60.59;97782.09;6122897;23;20030;-79
2023/07/19 11:38:24;;;;;;;0.40;0.40;;;;;;;18.22;61.73;97796.91;6123716;23;20104;-78
2023/07/19 11:40:51;;;;;;;0.40;0.40;;;;;;;17.76;62.74;97791.78;6096997;23;20089;-80
2023/07/19 11:43:25;;;;;;;0.40;0.40;;;;;;;17.52;64.23;97786.81;6122326;23;20022;-79
2023/07/19 11:45:53;;;;;;;;;;;;;;;17.27;64.63;97798.47;6123095;23;20026;-79
2023/07/19 11:48:49;;;;;;;0.40;0.40;;;;;;;16.89;65.30;97786.19;6097062;23;19924;-78
2023/07/19 11:51:16;;;;;;;0.47;0.47;;;;;;;16.72;66.11;97790.72;6122472;23;20022;-80
2023/07/19 11:53:43;;;;;;;0.40;0.40;;;;;;;16.89;66.00;97818.88;6124996;23;20029;-78
2023/07/19 11:56:10;;;;;;;0.50;0.50;;;;;;;17.14;64.93;97808.38;6099031;23;20022;-79
2023/07/19 11:58:38;;;;;;;0.50;0.50;;;;;;;17.67;63.66;97799.19;6124684;23;20370;-80
2023/07/19 12:01:13;;;;;;;0.50;0.50;;;;;;;18.37;62.15;97793.66;6097892;23;20461;-78
2023/07/19 12:03:41;;;;;;;0.50;0.50;;;;;;;18.56;59.81;97807.78;6122793;23;20032;-79
2023/07/19 12:06:08;;;;;;;0.40;0.40;;;;;;;18.43;59.85;97808.75;6071396;23;20029;-79
2023/07/19 12:08:44;;;;;;;0.50;0.50;;;;;;;18.30;59.53;97821.47;6121083;23;20034;-79
2023/07/19 12:11:11;;;;;;;0.40;0.40;;;;;;;18.26;59.83;97819.72;6094018;23;20022;-78
2023/07/19 12:13:38;;;;;;;0.40;0.40;;;;;;;18.17;60.10;97811.53;6123445;23;20037;-78
2023/07/19 12:16:05;;;;;;;0.40;0.40;;;;;;;18.07;60.49;97807.19;6123015;23;20022;-79
2023/07/19 12:18:32;;;;;;;0.40;0.40;;;;;;;18.00;60.23;97834.19;6123467;23;20052;-80